createdAt,value
2023-04-12T00:00:15.398Z,5.60
2023-04-12T00:02:43.665Z,5.60
2023-04-12T00:05:13.948Z,5.60
2023-04-12T00:07:47.055Z,5.60
2023-04-12T00:10:19.848Z,5.60
2023-04-12T00:12:48.147Z,5.70
2023-04-12T00:15:16.315Z,5.60
2023-04-12T00:17:45.331Z,5.70
2023-04-12T00:20:13.596Z,5.70
2023-04-12T00:22:43.500Z,5.70
2023-04-12T00:25:13.983Z,5.70
2023-04-12T00:27:44.875Z,5.70
2023-04-12T00:30:13.405Z,5.70
2023-04-12T00:32:45.136Z,5.70
2023-04-12T00:35:14.577Z,5.80
2023-04-12T00:37:48.769Z,5.80
2023-04-12T00:40:16.796Z,5.70
2023-04-12T00:42:44.773Z,5.80
2023-04-12T00:45:12.804Z,5.80
2023-04-12T00:47:44.151Z,5.80
2023-04-12T00:50:12.814Z,5.80
2023-04-12T00:52:42.730Z,5.80
2023-04-12T00:55:12.208Z,5.90
2023-04-12T00:57:41.621Z,5.90
2023-04-12T01:00:14.138Z,5.90
2023-04-12T01:02:47.013Z,5.90
2023-04-12T01:05:22.240Z,5.90
2023-04-12T01:07:55.986Z,5.90
2023-04-12T01:10:30.264Z,5.90
2023-04-12T01:13:02.721Z,5.90
2023-04-12T01:15:32.483Z,6.00
2023-04-12T01:18:05.715Z,5.90
2023-04-12T01:20:37.456Z,6.00
2023-04-12T01:23:15.906Z,5.90
2023-04-12T01:25:53.803Z,6.00
2023-04-12T01:28:24.114Z,6.00
2023-04-12T01:30:52.571Z,6.00
2023-04-12T01:33:24.154Z,6.00
2023-04-12T01:35:52.931Z,6.00
2023-04-12T01:38:21.621Z,6.00
2023-04-12T01:40:49.728Z,6.00
2023-04-12T01:43:20.676Z,6.00
2023-04-12T01:45:50.122Z,6.10
2023-04-12T01:48:19.245Z,6.10
2023-04-12T01:50:52.936Z,6.10
2023-04-12T01:53:24.510Z,6.10
2023-04-12T01:55:54.469Z,6.10
2023-04-12T01:58:23.363Z,6.10
2023-04-12T02:00:57.975Z,6.10
2023-04-12T02:03:32.065Z,6.20
2023-04-12T02:06:00.808Z,6.20
2023-04-12T02:08:28.865Z,6.20
2023-04-12T02:10:57.030Z,6.20
2023-04-12T02:13:27.985Z,6.20
2023-04-12T02:15:59.220Z,6.20
2023-04-12T02:18:27.995Z,6.20
2023-04-12T02:20:59.791Z,6.20
2023-04-12T02:23:30.452Z,6.30
2023-04-12T02:25:58.433Z,6.20
2023-04-12T02:28:26.654Z,6.10
2023-04-12T02:30:54.760Z,6.10
2023-04-12T02:33:25.479Z,6.20
2023-04-12T02:35:53.653Z,6.20
2023-04-12T02:38:21.825Z,6.20
2023-04-12T02:40:57.450Z,6.20
2023-04-12T02:43:26.940Z,6.20
2023-04-12T02:45:57.868Z,6.20
2023-04-12T02:48:27.364Z,6.20
2023-04-12T02:50:56.782Z,6.30
2023-04-12T02:53:24.746Z,6.20
2023-04-12T02:55:52.984Z,6.20
2023-04-12T02:58:30.201Z,6.30
2023-04-12T03:01:02.217Z,6.30
2023-04-12T03:03:34.564Z,6.30
2023-04-12T03:06:04.622Z,6.30
2023-04-12T03:08:32.672Z,6.30
2023-04-12T03:11:03.523Z,6.30
2023-04-12T03:13:31.653Z,6.30
2023-04-12T03:16:00.785Z,6.30
2023-04-12T03:18:29.026Z,6.30
2023-04-12T03:20:58.558Z,6.40
2023-04-12T03:23:26.798Z,6.30
2023-04-12T03:25:54.872Z,6.40
2023-04-12T03:28:23.442Z,6.30
2023-04-12T03:30:51.717Z,6.30
2023-04-12T03:33:22.744Z,6.30
2023-04-12T03:35:51.048Z,6.30
2023-04-12T03:38:20.716Z,6.30
2023-04-12T03:40:51.215Z,6.30
2023-04-12T03:43:19.500Z,6.30
2023-04-12T03:45:47.759Z,6.30
2023-04-12T03:48:16.826Z,6.30
2023-04-12T03:50:45.296Z,6.30
2023-04-12T03:53:13.897Z,6.30
2023-04-12T03:55:45.079Z,6.30
2023-04-12T03:58:14.026Z,6.30
2023-04-12T04:00:42.343Z,6.30
2023-04-12T04:03:10.549Z,6.30
2023-04-12T04:05:38.699Z,6.20
2023-04-12T04:08:08.980Z,6.30
2023-04-12T04:10:40.068Z,6.20
2023-04-12T04:13:14.124Z,6.20
2023-04-12T04:15:42.540Z,6.20
2023-04-12T04:18:10.846Z,6.20
2023-04-12T04:20:38.899Z,6.20
2023-04-12T04:23:07.077Z,6.20
2023-04-12T04:25:35.308Z,6.30
2023-04-12T04:28:03.514Z,6.20
2023-04-12T04:30:34.202Z,6.30
2023-04-12T04:33:02.606Z,6.30
2023-04-12T04:35:31.910Z,6.30
2023-04-12T04:38:00.570Z,6.30
2023-04-12T04:40:30.033Z,6.30
2023-04-12T04:42:58.194Z,6.30
2023-04-12T04:45:27.728Z,6.40
2023-04-12T04:47:58.049Z,6.40
2023-04-12T04:50:26.565Z,6.40
2023-04-12T04:52:54.567Z,6.10
2023-04-12T04:55:29.148Z,6.40
2023-04-12T04:58:00.109Z,6.40
2023-04-12T05:00:28.932Z,6.50
2023-04-12T05:03:03.608Z,6.50
2023-04-12T05:05:31.761Z,6.50
2023-04-12T05:08:00.152Z,6.60
2023-04-12T05:10:28.248Z,6.60
2023-04-12T05:12:56.408Z,6.60
2023-04-12T05:15:27.254Z,6.70
2023-04-12T05:17:55.576Z,6.80
2023-04-12T05:20:26.930Z,6.80
2023-04-12T05:22:55.187Z,6.80
2023-04-12T05:25:29.425Z,6.90
2023-04-12T05:27:57.438Z,6.90
2023-04-12T05:30:25.567Z,7.00
2023-04-12T05:32:53.788Z,7.10
2023-04-12T05:35:22.022Z,7.10
2023-04-12T05:37:51.912Z,7.10
2023-04-12T05:40:20.259Z,7.20
2023-04-12T05:42:48.412Z,7.20
2023-04-12T05:45:16.502Z,7.30
2023-04-12T05:47:44.729Z,7.30
2023-04-12T05:50:13.027Z,7.30
2023-04-12T05:52:42.671Z,7.40
2023-04-12T05:55:12.060Z,7.40
2023-04-12T05:57:40.238Z,7.40
2023-04-12T06:00:16.464Z,7.40
2023-04-12T06:02:44.843Z,7.50
2023-04-12T06:05:13.201Z,7.50
2023-04-12T06:07:42.284Z,7.60
2023-04-12T06:10:11.082Z,7.60
2023-04-12T06:12:40.645Z,7.70
2023-04-12T06:15:08.981Z,7.70
2023-04-12T06:17:39.898Z,7.70
2023-04-12T06:20:09.758Z,7.70
2023-04-12T06:22:38.008Z,7.80
2023-04-12T06:25:06.451Z,7.80
2023-04-12T06:27:34.534Z,7.80
2023-04-12T06:30:04.248Z,7.90
2023-04-12T06:32:32.350Z,7.90
2023-04-12T06:35:01.074Z,8.00
2023-04-12T06:37:29.356Z,8.00
2023-04-12T06:39:57.424Z,8.10
2023-04-12T06:42:25.541Z,8.10
2023-04-12T06:44:53.670Z,8.10
2023-04-12T06:47:23.825Z,8.20
2023-04-12T06:49:56.103Z,8.20
2023-04-12T06:52:25.142Z,8.30
2023-04-12T06:54:53.409Z,8.30
2023-04-12T06:57:21.534Z,8.40
2023-04-12T06:59:49.684Z,8.40
2023-04-12T07:02:18.443Z,8.40
2023-04-12T07:04:48.395Z,8.50
2023-04-12T07:07:16.422Z,8.50
2023-04-12T07:09:44.494Z,8.60
2023-04-12T07:12:12.488Z,8.60
2023-04-12T07:14:41.195Z,8.60
2023-04-12T07:17:10.394Z,8.70
2023-04-12T07:19:39.450Z,8.70
2023-04-12T07:22:09.369Z,8.70
2023-04-12T07:24:37.928Z,8.70
2023-04-12T07:27:06.270Z,8.80
2023-04-12T07:29:34.844Z,8.80
2023-04-12T07:32:02.854Z,8.90
2023-04-12T07:34:31.201Z,8.90
2023-04-12T07:37:00.937Z,9.00
2023-04-12T07:39:31.543Z,9.00
2023-04-12T07:41:59.514Z,9.00
2023-04-12T07:44:27.775Z,9.10
2023-04-12T07:46:55.764Z,9.10
2023-04-12T07:49:23.855Z,9.10
2023-04-12T07:51:51.941Z,9.10
2023-04-12T07:54:21.202Z,9.20
2023-04-12T07:57:00.698Z,9.20
2023-04-12T07:59:29.020Z,9.20
2023-04-12T08:01:57.184Z,9.20
2023-04-12T08:04:25.894Z,9.10
2023-04-12T08:06:53.932Z,9.10
2023-04-12T08:09:22.022Z,9.20
2023-04-12T08:11:50.121Z,9.10
2023-04-12T08:14:19.620Z,9.20
2023-04-12T08:16:47.792Z,9.20
2023-04-12T08:19:16.113Z,9.10
2023-04-12T08:21:44.148Z,9.00
2023-04-12T08:24:13.026Z,9.10
2023-04-12T08:26:41.369Z,9.00
2023-04-12T08:29:09.484Z,9.00
2023-04-12T08:31:39.214Z,9.00
2023-04-12T08:34:22.457Z,9.00
2023-04-12T08:36:50.519Z,9.00
2023-04-12T08:39:18.748Z,8.90
2023-04-12T08:41:47.041Z,8.70
2023-04-12T08:44:16.487Z,8.80
2023-04-12T08:46:46.891Z,8.80
2023-04-12T08:49:14.971Z,8.80
2023-04-12T08:51:43.279Z,8.80
2023-04-12T08:54:11.264Z,8.90
2023-04-12T08:56:40.628Z,8.80
2023-04-12T08:59:09.002Z,8.80
2023-04-12T09:01:42.354Z,8.80
2023-04-12T09:04:12.253Z,8.90
2023-04-12T09:06:41.565Z,8.90
2023-04-12T09:09:09.902Z,8.90
2023-04-12T09:11:40.070Z,9.00
2023-04-12T09:14:21.570Z,9.00
2023-04-12T09:16:49.950Z,9.10
2023-04-12T09:19:31.655Z,9.00
2023-04-12T09:21:59.822Z,9.00
2023-04-12T09:24:27.758Z,9.10
2023-04-12T09:27:02.597Z,9.00
2023-04-12T09:29:30.773Z,9.00
2023-04-12T09:32:03.338Z,9.00
2023-04-12T09:34:33.076Z,8.90
2023-04-12T09:37:01.414Z,8.30
2023-04-12T09:39:33.105Z,8.90
2023-04-12T09:42:18.149Z,8.90
2023-04-12T09:44:57.208Z,8.80
2023-04-12T09:47:26.035Z,8.80
2023-04-12T09:49:55.761Z,8.90
2023-04-12T09:52:25.232Z,9.00
2023-04-12T09:54:54.665Z,9.00
2023-04-12T09:57:24.361Z,9.10
2023-04-12T09:59:53.522Z,9.20
2023-04-12T10:02:28.390Z,9.10
2023-04-12T10:04:58.381Z,9.20
2023-04-12T10:07:27.263Z,9.20
2023-04-12T10:10:01.714Z,9.30
2023-04-12T10:12:30.025Z,9.30
2023-04-12T10:14:58.831Z,9.20
2023-04-12T10:17:27.303Z,9.20
2023-04-12T10:19:55.758Z,9.20
2023-04-12T10:22:25.112Z,9.20
2023-04-12T10:24:53.170Z,9.10
2023-04-12T10:27:26.139Z,9.10
2023-04-12T10:29:54.498Z,9.00
2023-04-12T10:32:23.338Z,9.10
2023-04-12T10:34:51.897Z,9.00
2023-04-12T10:37:20.219Z,9.00
2023-04-12T10:39:54.431Z,9.00
2023-04-12T10:42:24.296Z,8.90
2023-04-12T10:44:53.181Z,9.00
2023-04-12T10:47:39.702Z,9.00
2023-04-12T10:50:25.029Z,9.10
2023-04-12T10:53:12.706Z,9.10
2023-04-12T10:55:43.165Z,9.10
2023-04-12T10:58:11.322Z,9.10
2023-04-12T11:00:54.387Z,9.10
2023-04-12T11:03:22.612Z,9.00
2023-04-12T11:06:12.714Z,9.00
2023-04-12T11:08:49.850Z,9.00
2023-04-12T11:11:22.772Z,9.10
2023-04-12T11:13:55.482Z,9.10
2023-04-12T11:16:26.156Z,9.10
2023-04-12T11:18:55.367Z,9.20
2023-04-12T11:21:23.818Z,9.10
2023-04-12T11:23:51.977Z,9.20
2023-04-12T11:26:20.923Z,9.20
2023-04-12T11:28:53.260Z,9.20
2023-04-12T11:31:21.521Z,9.30
2023-04-12T11:33:49.888Z,9.30
2023-04-12T11:36:18.251Z,9.30
2023-04-12T11:38:48.271Z,9.40
2023-04-12T11:41:16.886Z,9.50
2023-04-12T11:43:45.979Z,9.60
2023-04-12T11:46:16.520Z,9.60
2023-04-12T11:48:47.661Z,9.70
2023-04-12T11:51:24.505Z,9.70
2023-04-12T11:53:57.007Z,9.70
2023-04-12T11:56:25.257Z,9.70
2023-04-12T11:58:53.249Z,9.80
2023-04-12T12:01:23.603Z,9.80
2023-04-12T12:03:52.258Z,9.70
2023-04-12T12:06:20.993Z,9.70
2023-04-12T12:08:50.291Z,9.60
2023-04-12T12:11:18.531Z,9.70
2023-04-12T12:13:47.448Z,9.80
2023-04-12T12:16:16.366Z,9.70
2023-04-12T12:18:59.287Z,9.80
2023-04-12T12:21:28.768Z,9.90
2023-04-12T12:23:57.785Z,9.90
2023-04-12T12:26:27.183Z,9.80
2023-04-12T12:28:56.278Z,9.80
2023-04-12T12:31:25.088Z,9.80
2023-04-12T12:33:55.238Z,9.80
2023-04-12T12:36:29.554Z,9.80
2023-04-12T12:38:57.880Z,9.70
2023-04-12T12:41:27.403Z,9.70
2023-04-12T12:43:55.878Z,9.70
2023-04-12T12:46:24.353Z,9.70
2023-04-12T12:48:52.388Z,9.70
2023-04-12T12:51:20.784Z,9.80
2023-04-12T12:53:50.708Z,9.80
2023-04-12T12:56:18.991Z,10.00
2023-04-12T12:58:47.163Z,10.00
2023-04-12T13:01:15.197Z,10.10
2023-04-12T13:03:44.886Z,10.10
2023-04-12T13:06:16.250Z,10.00
2023-04-12T13:08:44.609Z,10.00
2023-04-12T13:11:20.194Z,10.10
2023-04-12T13:13:48.776Z,10.10
2023-04-12T13:16:17.564Z,10.10
2023-04-12T13:18:46.196Z,10.20
2023-04-12T13:21:14.707Z,10.30
2023-04-12T13:23:43.168Z,10.50
2023-04-12T13:26:11.402Z,10.70
2023-04-12T13:28:41.033Z,10.90
2023-04-12T13:31:09.140Z,10.80
2023-04-12T13:33:37.308Z,10.70
2023-04-12T13:36:05.907Z,10.80
2023-04-12T13:38:35.924Z,10.70
2023-04-12T13:41:04.130Z,10.80
2023-04-12T13:43:32.990Z,10.90
2023-04-12T13:46:03.110Z,10.90
2023-04-12T13:48:31.179Z,10.90
2023-04-12T13:50:59.797Z,10.90
2023-04-12T13:53:27.906Z,10.70
2023-04-12T13:55:55.971Z,10.60
2023-04-12T13:58:25.829Z,10.70
2023-04-12T14:00:54.287Z,10.70
2023-04-12T14:03:23.955Z,10.50
2023-04-12T14:05:52.032Z,10.70
2023-04-12T14:08:20.252Z,10.70
2023-04-12T14:10:48.366Z,10.70
2023-04-12T14:13:16.600Z,10.70
2023-04-12T14:15:47.485Z,10.80
2023-04-12T14:18:15.763Z,10.80
2023-04-12T14:20:46.652Z,10.70
2023-04-12T14:23:14.822Z,10.80
2023-04-12T14:25:45.681Z,10.80
2023-04-12T14:28:16.695Z,10.90
2023-04-12T14:30:45.135Z,11.00
2023-04-12T14:33:13.283Z,11.20
2023-04-12T14:35:41.715Z,11.20
2023-04-12T14:38:11.123Z,11.20
2023-04-12T14:40:39.388Z,11.40
2023-04-12T14:43:10.696Z,12.80
2023-04-12T14:45:38.873Z,14.30
2023-04-12T14:48:07.259Z,15.80
2023-04-12T14:50:35.627Z,15.20
2023-04-12T14:53:03.696Z,14.60
2023-04-12T14:55:33.337Z,14.40
2023-04-12T14:58:01.500Z,14.00
2023-04-12T15:00:29.823Z,13.60
2023-04-12T15:03:00.977Z,13.20
2023-04-12T15:05:29.631Z,12.90
2023-04-12T15:07:57.810Z,12.80
2023-04-12T15:10:26.027Z,12.70
2023-04-12T15:12:57.994Z,12.50
2023-04-12T15:15:26.410Z,12.50
2023-04-12T15:17:57.386Z,12.40
2023-04-12T15:20:25.539Z,12.30
2023-04-12T15:22:53.578Z,12.30
2023-04-12T15:25:21.965Z,12.60
2023-04-12T15:27:50.042Z,12.50
2023-04-12T15:30:19.509Z,12.60
2023-04-12T15:32:47.717Z,12.70
2023-04-12T15:35:26.096Z,13.60
2023-04-12T15:38:00.303Z,14.20
2023-04-12T15:40:28.459Z,14.70
2023-04-12T15:42:56.749Z,17.60
2023-04-12T15:45:26.846Z,18.70
2023-04-12T15:47:55.288Z,17.40
2023-04-12T15:50:23.488Z,16.70
2023-04-12T15:52:52.917Z,16.20
2023-04-12T15:55:21.973Z,15.60
2023-04-12T15:57:50.346Z,15.30
2023-04-12T16:00:26.065Z,14.90
2023-04-12T16:02:56.300Z,14.50
2023-04-12T16:05:26.608Z,14.20
2023-04-12T16:07:58.929Z,13.80
2023-04-12T16:10:28.168Z,13.60
2023-04-12T16:12:59.003Z,13.30
2023-04-12T16:15:27.087Z,13.10
2023-04-12T16:17:56.536Z,12.90
2023-04-12T16:20:24.868Z,12.60
2023-04-12T16:22:58.604Z,12.40
2023-04-12T16:25:28.422Z,12.20
2023-04-12T16:27:57.159Z,11.80
2023-04-12T16:30:26.513Z,11.50
2023-04-12T16:32:56.080Z,11.30
2023-04-12T16:35:24.508Z,11.10
2023-04-12T16:37:52.737Z,10.90
2023-04-12T16:40:21.395Z,10.70
2023-04-12T16:42:49.599Z,10.40
2023-04-12T16:45:17.789Z,10.20
2023-04-12T16:47:47.257Z,10.10
2023-04-12T16:50:16.773Z,10.00
2023-04-12T16:52:44.902Z,9.80
2023-04-12T16:55:13.163Z,9.80
2023-04-12T16:57:41.679Z,9.60
2023-04-12T17:00:25.163Z,9.50
2023-04-12T17:02:54.194Z,9.20
2023-04-12T17:05:24.796Z,9.10
2023-04-12T17:07:55.282Z,9.00
2023-04-12T17:10:24.526Z,8.90
2023-04-12T17:13:02.066Z,8.70
2023-04-12T17:15:30.491Z,8.40
2023-04-12T17:18:02.790Z,8.20
2023-04-12T17:20:33.201Z,8.20
2023-04-12T17:23:01.641Z,8.10
2023-04-12T17:25:31.173Z,8.10
2023-04-12T17:28:00.190Z,8.10
2023-04-12T17:30:28.310Z,8.10
2023-04-12T17:32:56.469Z,8.10
2023-04-12T17:35:24.596Z,8.00
2023-04-12T17:37:54.174Z,7.90
2023-04-12T17:40:22.415Z,7.90
2023-04-12T17:42:50.488Z,7.90
2023-04-12T17:45:24.609Z,7.90
2023-04-12T17:47:52.760Z,8.40
2023-04-12T17:50:20.952Z,7.80
2023-04-12T17:52:49.120Z,7.70
2023-04-12T17:55:23.019Z,7.70
2023-04-12T17:57:51.105Z,7.70
2023-04-12T18:00:20.102Z,7.70
2023-04-12T18:02:49.290Z,7.70
2023-04-12T18:05:17.461Z,7.70
2023-04-12T18:07:45.580Z,7.70
2023-04-12T18:10:15.725Z,7.70
2023-04-12T18:12:46.522Z,7.70
2023-04-12T18:15:14.997Z,7.70
2023-04-12T18:17:43.037Z,7.70
2023-04-12T18:20:12.027Z,7.70
2023-04-12T18:22:46.191Z,7.70
2023-04-12T18:25:14.339Z,7.70
2023-04-12T18:27:42.397Z,7.80
2023-04-12T18:30:12.083Z,7.80
2023-04-12T18:32:40.334Z,7.80
2023-04-12T18:35:09.326Z,7.80
2023-04-12T18:37:38.094Z,7.80
2023-04-12T18:40:08.329Z,7.70
2023-04-12T18:42:37.022Z,7.70
2023-04-12T18:45:06.029Z,7.70
2023-04-12T18:47:35.613Z,7.60
2023-04-12T18:50:03.689Z,7.50
2023-04-12T18:52:31.803Z,7.50
2023-04-12T18:54:59.880Z,7.40
2023-04-12T18:57:29.200Z,7.40
2023-04-12T18:59:57.509Z,7.40
2023-04-12T19:02:25.784Z,7.40
2023-04-12T19:04:55.541Z,7.40
2023-04-12T19:07:24.351Z,7.40
2023-04-12T19:09:52.423Z,7.30
2023-04-12T19:12:20.640Z,7.40
2023-04-12T19:14:48.695Z,7.30
2023-04-12T19:17:16.871Z,7.30
2023-04-12T19:19:44.866Z,7.20
2023-04-12T19:22:14.253Z,7.20
2023-04-12T19:24:42.386Z,7.20
2023-04-12T19:27:10.869Z,7.10
2023-04-12T19:29:38.962Z,7.10
2023-04-12T19:32:12.166Z,7.10
2023-04-12T19:34:40.610Z,7.00
2023-04-12T19:37:08.700Z,7.10
2023-04-12T19:39:40.503Z,7.00
2023-04-12T19:42:09.499Z,7.00
2023-04-12T19:44:40.419Z,7.00
2023-04-12T19:47:09.101Z,6.90
2023-04-12T19:49:37.459Z,6.90
2023-04-12T19:52:06.296Z,6.90
2023-04-12T19:54:34.432Z,6.90
2023-04-12T19:57:05.140Z,6.90
2023-04-12T19:59:34.380Z,6.80
2023-04-12T20:02:04.444Z,6.80
2023-04-12T20:04:32.710Z,6.70
2023-04-12T20:07:01.150Z,6.70
2023-04-12T20:09:29.330Z,6.60
2023-04-12T20:11:58.309Z,6.60
2023-04-12T20:14:27.657Z,6.60
2023-04-12T20:16:56.778Z,6.60
2023-04-12T20:19:24.856Z,6.60
2023-04-12T20:22:01.860Z,6.50
2023-04-12T20:24:30.507Z,6.50
2023-04-12T20:26:58.545Z,6.50
2023-04-12T20:29:30.313Z,6.50
2023-04-12T20:31:58.531Z,6.40
2023-04-12T20:34:29.481Z,6.40
2023-04-12T20:36:57.820Z,6.40
2023-04-12T20:39:25.874Z,6.40
2023-04-12T20:41:54.890Z,6.40
2023-04-12T20:44:23.135Z,6.40
2023-04-12T20:46:52.953Z,6.30
2023-04-12T20:49:21.154Z,6.40
2023-04-12T20:51:49.914Z,6.30
2023-04-12T20:54:21.497Z,6.30
2023-04-12T20:56:50.477Z,6.20
2023-04-12T20:59:21.876Z,6.20
2023-04-12T21:01:50.587Z,6.20
2023-04-12T21:04:20.485Z,6.10
2023-04-12T21:06:48.847Z,6.20
2023-04-12T21:09:17.005Z,6.10
2023-04-12T21:11:45.029Z,6.10
2023-04-12T21:14:13.508Z,6.10
2023-04-12T21:16:41.861Z,6.00
2023-04-12T21:19:12.894Z,6.00
2023-04-12T21:21:42.359Z,6.00
2023-04-12T21:24:12.076Z,5.90
2023-04-12T21:26:40.797Z,5.90
2023-04-12T21:29:11.838Z,5.90
2023-04-12T21:31:41.613Z,5.90
2023-04-12T21:34:10.232Z,5.90
2023-04-12T21:36:38.691Z,5.90
2023-04-12T21:39:10.261Z,5.80
2023-04-12T21:41:38.458Z,5.80
2023-04-12T21:44:07.264Z,5.80
2023-04-12T21:46:35.592Z,5.80
2023-04-12T21:49:05.009Z,5.70
2023-04-12T21:51:33.282Z,5.70
2023-04-12T21:54:01.785Z,5.70
2023-04-12T21:56:31.371Z,5.70
2023-04-12T21:59:02.684Z,5.70
2023-04-12T22:01:31.954Z,5.70
2023-04-12T22:04:00.635Z,5.70
2023-04-12T22:06:29.396Z,5.60
2023-04-12T22:09:05.502Z,5.60
2023-04-12T22:11:35.619Z,5.50
2023-04-12T22:14:09.711Z,5.50
2023-04-12T22:16:38.490Z,5.50
2023-04-12T22:19:09.298Z,5.50
2023-04-12T22:21:37.317Z,5.40
2023-04-12T22:24:13.730Z,5.40
2023-04-12T22:26:43.093Z,5.40
2023-04-12T22:29:11.111Z,5.30
2023-04-12T22:31:41.786Z,5.30
2023-04-12T22:34:10.832Z,5.30
2023-04-12T22:36:42.108Z,5.30
2023-04-12T22:39:15.527Z,5.30
2023-04-12T22:41:49.507Z,5.30
2023-04-12T22:44:22.075Z,5.20
2023-04-12T22:46:50.412Z,5.20
2023-04-12T22:49:19.949Z,5.20
2023-04-12T22:51:48.151Z,5.20
2023-04-12T22:54:17.444Z,5.10
2023-04-12T22:56:47.012Z,5.10
2023-04-12T22:59:15.418Z,5.10
2023-04-12T23:01:44.343Z,5.10
2023-04-12T23:04:12.573Z,5.10
2023-04-12T23:06:41.690Z,5.10
2023-04-12T23:09:10.214Z,5.10
2023-04-12T23:11:39.722Z,5.10
2023-04-12T23:14:12.931Z,5.00
2023-04-12T23:16:44.090Z,5.00
2023-04-12T23:19:13.935Z,5.00
2023-04-12T23:21:47.819Z,5.00
2023-04-12T23:24:16.611Z,5.00
2023-04-12T23:26:45.492Z,5.00
2023-04-12T23:29:15.019Z,4.90
2023-04-12T23:31:43.177Z,4.90
2023-04-12T23:34:11.258Z,4.90
2023-04-12T23:36:39.348Z,4.90
2023-04-12T23:39:09.380Z,5.50
2023-04-12T23:41:38.324Z,4.90
2023-04-12T23:44:06.489Z,4.90
2023-04-12T23:46:35.994Z,4.80
2023-04-12T23:49:04.136Z,4.80
2023-04-12T23:51:32.538Z,4.80
2023-04-12T23:54:00.795Z,4.80
2023-04-12T23:56:30.932Z,4.80
2023-04-12T23:58:58.953Z,4.80
